Time;durP1;ratioP1;P1;durP2;ratioP2;P2;SDS_P1;SDS_P2;PMS_P1;PMS_P2;Temp;Humidity;BMP_temperature;BMP_pressure;BME280_temperature;BME280_humidity;BME280_pressure;Samples;Min_cycle;Max_cycle;Signal;HPM_P1;HPM_P2
2022/12/27 00:01:14;;;;;;;5.00;3.00;;;5.70;99.90;;;;;;5092608;28;20543;-62
2022/12/27 00:03:40;;;;;;;5.57;2.40;;;5.70;99.90;;;;;;5086402;28;20165;-62
2022/12/27 00:06:15;;;;;;;2.53;2.33;;;5.70;99.90;;;;;;5092456;28;20196;-62
2022/12/27 00:08:42;;;;;;;3.90;2.80;;;5.60;99.90;;;;;;5091940;28;20237;-63
2022/12/27 00:11:11;;;;;;;5.03;2.43;;;5.70;99.90;;;;;;5083343;28;20648;-62
2022/12/27 00:13:37;;;;;;;6.87;3.23;;;5.70;99.90;;;;;;5079088;28;20199;-63
2022/12/27 00:16:05;;;;;;;6.60;3.77;;;5.60;99.90;;;;;;5066533;28;20185;-62
2022/12/27 00:18:31;;;;;;;2.57;2.13;;;5.50;99.90;;;;;;5090119;28;20177;-62
2022/12/27 00:20:59;;;;;;;5.20;2.43;;;5.50;99.90;;;;;;5092180;28;20180;-62
2022/12/27 00:23:25;;;;;;;5.70;2.33;;;5.60;99.90;;;;;;5091947;28;20200;-63
2022/12/27 00:25:50;;;;;;;7.03;2.60;;;5.50;99.90;;;;;;5090923;28;20541;-63
2022/12/27 00:28:16;;;;;;;4.53;2.73;;;5.60;99.90;;;;;;5086224;28;20295;-62
2022/12/27 00:30:42;;;;;;;5.47;2.60;;;5.50;99.90;;;;;;5090925;28;20185;-63
2022/12/27 00:33:08;;;;;;;4.23;2.87;;;5.50;99.90;;;;;;5091035;28;20325;-63
2022/12/27 00:35:37;;;;;;;3.43;2.60;;;5.50;99.90;;;;;;5090658;28;20180;-62
2022/12/27 00:38:02;;;;;;;3.63;2.43;;;5.50;99.90;;;;;;5087186;28;20189;-63
2022/12/27 00:40:28;;;;;;;2.63;2.43;;;5.40;99.90;;;;;;5086237;28;20314;-62
2022/12/27 00:42:53;;;;;;;2.37;2.23;;;5.40;99.90;;;;;;5085826;28;20182;-62
2022/12/27 00:45:19;;;;;;;2.70;2.50;;;5.50;99.90;;;;;;5083105;28;20651;-63
2022/12/27 00:47:45;;;;;;;4.60;2.63;;;5.50;99.90;;;;;;5091974;28;20200;-62
2022/12/27 00:50:10;;;;;;;5.80;2.80;;;5.50;99.90;;;;;;5091284;28;20195;-62
2022/12/27 00:52:36;;;;;;;3.17;2.87;;;5.50;99.90;;;;;;5091533;28;20196;-62
2022/12/27 00:55:02;;;;;;;5.07;3.03;;;5.40;99.90;;;;;;5090546;28;20207;-62
2022/12/27 00:57:27;;;;;;;5.63;2.40;;;5.50;99.90;;;;;;5086830;28;20181;-63
2022/12/27 00:59:53;;;;;;;2.27;2.07;;;5.60;99.90;;;;;;5087434;28;20590;-62
2022/12/27 01:02:19;;;;;;;2.73;2.10;;;5.60;99.90;;;;;;5092338;28;20180;-62
2022/12/27 01:04:45;;;;;;;2.73;2.50;;;5.60;99.90;;;;;;5063597;28;20628;-63
2022/12/27 01:07:10;;;;;;;7.27;2.50;;;5.60;99.90;;;;;;5089174;28;20184;-62
2022/12/27 01:09:36;;;;;;;1.87;1.77;;;5.50;99.90;;;;;;5086210;28;20239;-63
2022/12/27 01:12:01;;;;;;;6.27;2.30;;;5.50;99.90;;;;;;5092030;28;20220;-62
2022/12/27 01:14:27;;;;;;;4.20;2.10;;;5.50;99.90;;;;;;5092057;28;20622;-62
2022/12/27 01:16:53;;;;;;;3.07;2.30;;;5.50;99.90;;;;;;5076819;28;20204;-63
2022/12/27 01:19:18;;;;;;;4.30;1.97;;;5.50;99.90;;;;;;5091611;28;20253;-63
2022/12/27 01:21:44;;;;;;;5.60;3.07;;;5.50;99.90;;;;;;5088720;28;20212;-63
2022/12/27 01:24:10;;;;;;;3.33;1.33;;;5.50;99.90;;;;;;5087224;28;20226;-63
2022/12/27 01:26:35;;;;;;;7.83;2.70;;;5.40;99.90;;;;;;5089311;28;20695;-62
2022/12/27 01:29:01;;;;;;;2.27;2.07;;;5.50;99.90;;;;;;5090554;28;20641;-62
2022/12/27 01:31:27;;;;;;;5.07;2.20;;;5.50;99.90;;;;;;5087155;28;20651;-62
2022/12/27 01:33:54;;;;;;;3.57;3.23;;;5.40;99.90;;;;;;5089999;28;20188;-62
2022/12/27 01:36:22;;;;;;;2.00;1.83;;;5.40;99.90;;;;;;5076653;28;20184;-62
2022/12/27 01:38:48;;;;;;;7.87;2.23;;;5.60;99.90;;;;;;5100806;28;20185;-62
2022/12/27 01:44:38;;;;;;;2.20;2.10;;;5.60;99.90;;;;;;5094765;28;20554;-62
2022/12/27 01:47:26;;;;;;;3.53;2.17;;;5.50;99.90;;;;;;5093480;28;20177;-63
2022/12/27 01:50:06;;;;;;;5.10;2.37;;;5.60;99.90;;;;;;5095119;28;20188;-61
2022/12/27 01:52:55;;;;;;;2.63;2.37;;;5.60;99.90;;;;;;5092967;28;20189;-62
2022/12/27 01:55:27;;;;;;;3.07;2.03;;;5.50;99.90;;;;;;5092714;28;20183;-62
2022/12/27 01:58:00;;;;;;;2.03;1.70;;;5.60;99.90;;;;;;5092996;28;20223;-63
2022/12/27 02:00:26;;;;;;;4.50;2.40;;;5.50;99.90;;;;;;5077160;28;20580;-62
2022/12/27 02:02:52;;;;;;;4.67;2.27;;;5.60;99.90;;;;;;5087229;28;20185;-64
2022/12/27 02:05:19;;;;;;;6.30;2.77;;;5.60;99.90;;;;;;5094096;28;20177;-63
2022/12/27 02:07:57;;;;;;;11.97;2.97;;;5.50;99.90;;;;;;5094605;28;20194;-62
2022/12/27 02:10:24;;;;;;;3.93;2.60;;;5.50;99.90;;;;;;5081735;28;20196;-62
2022/12/27 02:12:50;;;;;;;5.37;2.60;;;5.60;99.90;;;;;;5093927;28;20234;-62
2022/12/27 02:15:16;;;;;;;2.40;2.20;;;5.70;99.90;;;;;;5090370;28;20226;-62
2022/12/27 02:17:42;;;;;;;2.57;2.40;;;5.60;99.90;;;;;;5082366;28;20190;-63
2022/12/27 02:20:14;;;;;;;2.13;1.93;;;5.60;99.90;;;;;;5094044;28;20190;-62
2022/12/27 02:26:21;;;;;;;3.73;1.87;;;5.50;99.90;;;;;;5094596;28;20712;-63
2022/12/27 02:29:03;;;;;;;3.67;2.13;;;5.40;99.90;;;;;;5064972;28;20208;-62
2022/12/27 02:31:55;;;;;;;7.03;3.37;;;5.40;99.90;;;;;;5086410;28;20635;-63
2022/12/27 02:34:28;;;;;;;4.43;2.30;;;5.30;99.90;;;;;;5084363;28;20225;-63
2022/12/27 02:37:01;;;;;;;4.47;2.47;;;5.30;99.90;;;;;;5093687;28;20191;-62
2022/12/27 02:39:30;;;;;;;2.40;2.20;;;5.20;99.90;;;;;;5086435;28;20184;-63
2022/12/27 02:53:06;;;;;;;3.47;2.97;;;5.40;99.90;;;;;;5082143;28;20540;-63
2022/12/27 02:59:24;;;;;;;8.60;2.27;;;5.40;99.90;;;;;;5091535;28;20187;-63
2022/12/27 03:05:10;;;;;;;3.63;2.10;;;5.20;99.90;;;;;;5088978;28;20241;-63
2022/12/27 03:07:43;;;;;;;4.40;2.23;;;5.20;99.90;;;;;;5091769;28;20207;-63
2022/12/27 03:16:31;;;;;;;3.70;2.10;;;5.40;99.90;;;;;;5093648;28;20552;-62
2022/12/27 03:25:26;;;;;;;7.10;2.40;;;5.40;99.90;;;;;;5080078;28;20201;-63
2022/12/27 03:27:37;;;;;;;2.77;2.53;;;5.40;99.90;;;;;;5092552;28;20231;-63
2022/12/27 03:33:14;;;;;;;7.53;2.77;;;5.40;99.90;;;;;;5089244;28;20199;-63
2022/12/27 03:35:41;;;;;;;4.77;2.13;;;5.40;99.90;;;;;;5093075;28;20620;-63
2022/12/27 03:38:11;;;;;;;11.63;3.27;;;5.30;99.90;;;;;;5088015;28;20651;-63
2022/12/27 03:43:39;;;;;;;4.93;2.80;;;5.40;99.90;;;;;;5083634;28;20607;-63
2022/12/27 03:46:33;;;;;;;6.83;3.40;;;5.40;99.90;;;;;;5091945;28;20260;-63
2022/12/27 03:49:27;;;;;;;3.50;2.17;;;5.40;99.90;;;;;;5091584;28;20204;-62
2022/12/27 03:51:57;;;;;;;4.17;2.43;;;5.40;99.90;;;;;;5068893;28;20201;-63
2022/12/27 03:54:27;;;;;;;5.17;3.67;;;5.30;99.90;;;;;;5082069;28;21219;-63
2022/12/27 03:56:59;;;;;;;2.93;2.33;;;5.40;99.90;;;;;;5092578;28;20234;-63
2022/12/27 03:59:25;;;;;;;4.27;2.80;;;5.10;99.90;;;;;;5090139;28;20181;-62
2022/12/27 04:01:51;;;;;;;3.63;2.53;;;5.20;99.90;;;;;;5091274;28;20180;-63
2022/12/27 04:04:17;;;;;;;4.50;2.83;;;5.10;99.90;;;;;;5071936;28;20279;-60
2022/12/27 04:06:43;;;;;;;6.10;2.70;;;5.10;99.90;;;;;;5076412;28;20275;-63
2022/12/27 04:36:31;;;;;;;2.97;2.67;;;5.00;99.90;;;;;;5079165;28;20196;-62
2022/12/27 04:38:56;;;;;;;4.57;3.07;;;5.00;99.90;;;;;;5090944;28;20193;-63
2022/12/27 04:55:27;;;;;;;5.60;2.77;;;5.10;99.90;;;;;;5083737;28;20237;-61
2022/12/27 04:57:53;;;;;;;11.33;2.70;;;5.00;99.90;;;;;;5075275;28;20541;-61
2022/12/27 05:03:17;;;;;;;2.63;2.40;;;5.00;99.90;;;;;;5090680;28;20669;-61
2022/12/27 05:05:44;;;;;;;4.33;2.57;;;5.10;99.90;;;;;;5085928;28;20211;-62
2022/12/27 05:16:34;;;;;;;4.47;2.67;;;5.10;99.90;;;;;;5084537;28;20195;-61
2022/12/27 05:19:00;;;;;;;4.37;2.50;;;5.20;99.90;;;;;;5090932;28;20207;-61
2022/12/27 05:21:26;;;;;;;5.03;2.30;;;5.30;99.90;;;;;;5089729;28;20213;-61
2022/12/27 05:26:37;;;;;;;5.00;3.23;;;5.40;99.90;;;;;;5095815;28;20656;-61
2022/12/27 05:29:05;;;;;;;2.60;2.40;;;5.20;99.90;;;;;;5090822;28;20236;-61
2022/12/27 05:31:31;;;;;;;3.37;3.00;;;5.10;99.90;;;;;;5094497;28;20188;-61
2022/12/27 05:33:57;;;;;;;5.43;2.80;;;4.90;99.90;;;;;;5083161;28;20207;-61
2022/12/27 05:36:23;;;;;;;5.90;3.40;;;5.10;99.90;;;;;;5084773;28;20180;-61
2022/12/27 05:38:50;;;;;;;3.40;2.63;;;5.10;99.90;;;;;;5082475;28;20557;-61
2022/12/27 05:41:16;;;;;;;2.63;2.43;;;5.20;99.90;;;;;;5095157;28;20584;-61
2022/12/27 05:43:41;;;;;;;3.77;3.13;;;5.10;99.90;;;;;;5082773;28;20235;-61
2022/12/27 05:46:09;;;;;;;3.30;3.00;;;5.10;99.90;;;;;;5098102;28;20522;-62
2022/12/27 05:48:35;;;;;;;5.53;2.77;;;5.10;99.90;;;;;;5087443;28;20239;-61
2022/12/27 05:51:20;;;;;;;6.27;3.20;;;5.10;99.90;;;;;;5091870;28;20278;-61
2022/12/27 05:53:47;;;;;;;4.97;3.23;;;5.10;99.90;;;;;;5095253;28;20259;-61
2022/12/27 05:56:16;;;;;;;3.07;2.47;;;5.10;99.90;;;;;;5088593;28;20191;-61
2022/12/27 05:58:42;;;;;;;4.93;2.73;;;5.10;99.90;;;;;;5084518;28;20212;-62
2022/12/27 06:01:10;;;;;;;4.90;3.87;;;5.00;99.90;;;;;;5064727;28;20196;-62
2022/12/27 06:03:36;;;;;;;6.97;3.73;;;5.10;99.90;;;;;;5079174;28;20514;-62
2022/12/27 06:06:04;;;;;;;4.07;2.77;;;5.00;99.90;;;;;;5093215;28;20206;-62
2022/12/27 06:08:29;;;;;;;7.23;3.40;;;5.10;99.90;;;;;;5093763;28;20211;-62
2022/12/27 06:11:06;;;;;;;8.50;3.70;;;5.10;99.90;;;;;;5094507;28;20181;-61
2022/12/27 06:13:31;;;;;;;2.83;2.63;;;5.10;99.90;;;;;;5091071;28;20624;-63
2022/12/27 06:15:59;;;;;;;5.07;3.67;;;5.10;99.90;;;;;;5090030;28;20192;-65
2022/12/27 06:18:25;;;;;;;3.93;2.93;;;5.20;99.90;;;;;;5097700;28;20181;-64
2022/12/27 06:20:50;;;;;;;3.03;2.20;;;5.00;99.90;;;;;;5089704;28;20663;-65
2022/12/27 06:23:16;;;;;;;6.07;3.20;;;5.00;99.90;;;;;;5088889;28;20219;-65
2022/12/27 06:25:41;;;;;;;10.43;3.67;;;5.00;99.90;;;;;;5091509;28;20185;-65
2022/12/27 06:28:07;;;;;;;4.20;2.83;;;4.90;99.90;;;;;;5094143;28;20199;-65
2022/12/27 06:30:33;;;;;;;3.17;2.50;;;4.90;99.90;;;;;;5094131;28;20185;-64
2022/12/27 06:32:58;;;;;;;7.27;3.47;;;4.80;99.90;;;;;;5072353;28;20177;-65
2022/12/27 06:35:24;;;;;;;4.80;3.50;;;4.70;99.90;;;;;;5091807;28;20179;-65
2022/12/27 06:37:50;;;;;;;3.53;3.23;;;4.60;99.90;;;;;;5065613;28;20185;-65
2022/12/27 06:40:15;;;;;;;5.57;3.23;;;4.70;99.90;;;;;;5092438;28;20181;-65
2022/12/27 06:42:41;;;;;;;7.40;3.60;;;4.70;99.90;;;;;;5080890;28;20187;-64
2022/12/27 06:45:08;;;;;;;4.03;3.67;;;4.80;99.90;;;;;;5098228;28;20692;-65
2022/12/27 06:47:35;;;;;;;3.23;2.93;;;4.90;99.90;;;;;;5093758;28;20193;-65
2022/12/27 06:50:01;;;;;;;6.97;3.60;;;5.00;99.90;;;;;;5092457;28;20212;-65
2022/12/27 06:52:27;;;;;;;6.00;3.27;;;4.90;99.90;;;;;;5091781;28;20185;-66
2022/12/27 06:54:52;;;;;;;6.07;3.37;;;5.00;99.90;;;;;;5100558;28;20215;-65
2022/12/27 06:57:18;;;;;;;4.80;4.30;;;4.90;99.90;;;;;;5077780;28;20660;-67
2022/12/27 06:59:44;;;;;;;4.77;3.87;;;4.90;99.90;;;;;;5083600;28;20199;-63
2022/12/27 07:02:10;;;;;;;4.17;3.27;;;4.90;99.90;;;;;;5091628;28;20211;-65
2022/12/27 07:04:36;;;;;;;6.50;4.03;;;4.90;99.90;;;;;;5084078;28;20181;-65
2022/12/27 07:07:02;;;;;;;8.57;3.77;;;4.90;99.90;;;;;;5093536;28;20173;-66
2022/12/27 07:09:28;;;;;;;4.17;3.03;;;5.10;99.90;;;;;;5061788;28;20201;-65
2022/12/27 07:11:53;;;;;;;4.57;4.17;;;5.30;99.90;;;;;;5078892;28;20197;-63
2022/12/27 07:14:19;;;;;;;4.67;3.47;;;5.40;99.90;;;;;;5079322;28;20650;-63
2022/12/27 07:16:47;;;;;;;4.03;3.60;;;5.30;99.90;;;;;;5086251;28;20584;-64
2022/12/27 07:19:13;;;;;;;5.80;3.37;;;5.20;99.90;;;;;;5087912;28;20650;-65
2022/12/27 07:21:39;;;;;;;4.53;2.93;;;5.30;99.90;;;;;;5078065;28;20186;-64
2022/12/27 07:24:05;;;;;;;3.80;2.60;;;5.40;99.90;;;;;;5078421;28;20519;-64
2022/12/27 07:26:30;;;;;;;3.13;2.77;;;5.30;99.90;;;;;;5089900;28;20188;-63
2022/12/27 07:28:59;;;;;;;2.80;2.57;;;5.10;99.90;;;;;;5071973;28;20197;-67
2022/12/27 07:31:29;;;;;;;3.43;3.13;;;5.00;99.90;;;;;;5077818;28;20185;-66
2022/12/27 07:33:55;;;;;;;4.47;3.60;;;5.00;99.90;;;;;;5086174;28;20530;-66
2022/12/27 07:36:24;;;;;;;4.20;3.50;;;5.20;99.90;;;;;;5089918;28;20698;-66
2022/12/27 07:38:51;;;;;;;3.77;3.30;;;5.20;99.90;;;;;;5087405;28;20195;-65
2022/12/27 07:41:16;;;;;;;8.90;2.87;;;5.20;99.90;;;;;;5091504;28;20266;-65
2022/12/27 07:43:43;;;;;;;3.83;3.03;;;5.20;99.90;;;;;;5085207;28;20203;-66
2022/12/27 07:46:14;;;;;;;4.73;3.43;;;5.20;99.90;;;;;;5092680;28;20184;-66
2022/12/27 07:48:41;;;;;;;8.43;3.00;;;5.20;99.90;;;;;;5086957;28;20208;-66
2022/12/27 07:51:07;;;;;;;3.40;3.03;;;5.20;99.90;;;;;;5092320;28;20282;-66
2022/12/27 07:53:33;;;;;;;3.47;3.07;;;5.10;99.90;;;;;;5079683;28;20185;-66
2022/12/27 07:56:08;;;;;;;3.03;2.50;;;5.00;99.90;;;;;;5074215;28;20180;-65
2022/12/27 07:58:38;;;;;;;4.27;3.07;;;5.00;99.90;;;;;;5088957;28;20199;-65
2022/12/27 08:01:04;;;;;;;3.97;2.80;;;5.10;99.90;;;;;;5088883;28;20271;-64
2022/12/27 08:03:31;;;;;;;5.40;3.30;;;5.10;99.90;;;;;;5085256;28;20181;-64
2022/12/27 08:05:56;;;;;;;6.30;3.07;;;5.20;99.90;;;;;;5090990;28;20264;-65
2022/12/27 08:08:26;;;;;;;7.80;3.17;;;5.10;99.90;;;;;;5085456;28;20291;-66
2022/12/27 08:10:52;;;;;;;5.93;3.13;;;5.20;99.90;;;;;;5092239;28;20712;-64
2022/12/27 08:13:18;;;;;;;3.10;2.67;;;5.20;99.90;;;;;;5087817;28;20189;-64
2022/12/27 08:15:44;;;;;;;3.30;2.80;;;5.30;99.90;;;;;;5086057;28;20230;-64
2022/12/27 08:18:09;;;;;;;3.53;2.77;;;5.40;99.90;;;;;;5074738;28;20519;-64
2022/12/27 08:20:35;;;;;;;3.10;2.60;;;5.30;99.90;;;;;;5092537;28;20636;-64
2022/12/27 08:23:01;;;;;;;2.33;2.10;;;5.50;99.90;;;;;;5077146;28;20197;-64
2022/12/27 08:25:28;;;;;;;4.70;3.27;;;5.50;99.90;;;;;;5089771;28;20191;-64
2022/12/27 08:28:05;;;;;;;6.03;2.67;;;5.50;99.90;;;;;;5090030;28;20200;-64
2022/12/27 08:30:31;;;;;;;3.80;2.47;;;5.50;99.90;;;;;;5091764;28;20233;-64
2022/12/27 08:32:57;;;;;;;3.00;2.63;;;5.50;99.90;;;;;;5088767;28;20180;-64
2022/12/27 08:35:22;;;;;;;7.33;3.40;;;5.50;99.90;;;;;;5082343;28;20192;-64
2022/12/27 08:37:48;;;;;;;4.13;2.63;;;5.60;99.90;;;;;;5090738;28;20184;-64
2022/12/27 08:40:14;;;;;;;3.83;2.50;;;5.80;99.90;;;;;;5085024;28;20185;-67
2022/12/27 08:42:39;;;;;;;6.10;2.80;;;5.90;99.90;;;;;;5089071;28;20173;-64
2022/12/27 08:45:05;;;;;;;4.67;2.97;;;5.90;99.90;;;;;;5075936;28;20631;-64
2022/12/27 08:47:31;;;;;;;6.17;4.20;;;6.00;99.90;;;;;;5095704;28;20185;-64
2022/12/27 08:49:57;;;;;;;5.20;2.90;;;6.20;99.90;;;;;;5095115;28;20202;-65
2022/12/27 08:52:22;;;;;;;4.07;2.30;;;6.20;99.90;;;;;;5093277;28;20279;-64
2022/12/27 08:54:48;;;;;;;7.37;3.20;;;6.20;99.90;;;;;;5084045;28;20219;-64
2022/12/27 08:57:14;;;;;;;7.50;2.67;;;6.20;99.90;;;;;;5085028;28;20662;-64
2022/12/27 08:59:40;;;;;;;7.67;2.50;;;6.20;99.90;;;;;;5058438;28;20235;-64
2022/12/27 09:02:05;;;;;;;6.13;2.50;;;6.20;99.90;;;;;;5086113;28;20202;-64
2022/12/27 09:04:31;;;;;;;7.47;2.83;;;6.30;99.90;;;;;;5095562;28;20528;-64
2022/12/27 09:06:57;;;;;;;3.50;3.20;;;6.50;99.90;;;;;;5094052;28;20200;-64
2022/12/27 09:09:22;;;;;;;7.83;2.87;;;6.50;99.90;;;;;;5095567;28;20212;-64
2022/12/27 09:11:48;;;;;;;3.77;2.73;;;6.60;99.90;;;;;;5095377;28;20189;-64
2022/12/27 09:14:14;;;;;;;3.73;2.47;;;6.70;99.90;;;;;;5095528;28;20532;-64
2022/12/27 09:16:39;;;;;;;2.10;1.90;;;6.70;99.90;;;;;;5095869;28;20251;-64
2022/12/27 09:19:05;;;;;;;2.97;2.00;;;6.70;99.90;;;;;;5092208;28;20189;-64
2022/12/27 09:21:32;;;;;;;7.13;2.77;;;6.60;99.90;;;;;;5090778;28;20659;-63
2022/12/27 09:23:58;;;;;;;8.23;2.80;;;6.60;99.90;;;;;;5089772;28;20200;-63
2022/12/27 09:26:27;;;;;;;4.73;2.33;;;6.70;99.90;;;;;;5081235;28;20188;-63
2022/12/27 09:28:53;;;;;;;2.40;2.17;;;6.60;99.90;;;;;;5095540;28;20204;-63
2022/12/27 09:31:20;;;;;;;3.53;3.23;;;6.70;99.90;;;;;;5091369;28;20292;-63
2022/12/27 09:33:46;;;;;;;2.67;2.23;;;6.70;99.90;;;;;;5085609;28;20251;-64
2022/12/27 09:36:14;;;;;;;4.20;2.50;;;6.90;99.90;;;;;;5110979;28;20272;-65
2022/12/27 09:38:40;;;;;;;2.80;2.60;;;7.00;99.90;;;;;;5083734;28;20196;-63
2022/12/27 09:41:39;;;;;;;4.87;2.43;;;7.00;99.90;;;;;;5089853;28;20644;-64
2022/12/27 09:44:15;;;;;;;2.97;2.50;;;7.00;99.90;;;;;;5088982;28;20178;-64
2022/12/27 09:47:00;;;;;;;6.93;2.93;;;6.80;99.90;;;;;;5095406;28;20183;-64
2022/12/27 09:49:37;;;;;;;5.97;3.00;;;6.90;99.90;;;;;;5107879;28;20204;-64
2022/12/27 09:52:26;;;;;;;4.87;2.53;;;6.90;99.90;;;;;;5095626;28;20187;-64
2022/12/27 09:55:04;;;;;;;3.60;2.60;;;6.90;99.90;;;;;;5083028;28;20315;-64
2022/12/27 09:57:36;;;;;;;5.37;2.97;;;7.00;99.90;;;;;;5089600;28;20208;-64
2022/12/27 10:00:04;;;;;;;7.47;3.27;;;6.90;99.90;;;;;;5093548;28;20176;-64
2022/12/27 10:02:32;;;;;;;5.13;3.17;;;7.00;99.90;;;;;;5095020;28;20173;-63
2022/12/27 10:04:58;;;;;;;3.30;2.90;;;7.20;99.90;;;;;;5088923;28;20185;-64
2022/12/27 10:07:39;;;;;;;18.70;3.37;;;7.20;99.90;;;;;;5094648;28;20580;-64
2022/12/27 10:10:33;;;;;;;6.37;2.70;;;7.30;99.90;;;;;;5086095;28;20694;-63
2022/12/27 10:13:15;;;;;;;4.97;2.43;;;7.30;99.90;;;;;;5082321;28;20192;-63
2022/12/27 10:15:45;;;;;;;3.07;2.57;;;7.20;99.90;;;;;;5094332;28;20541;-64
2022/12/27 10:18:32;;;;;;;3.47;2.53;;;7.30;99.90;;;;;;5094830;28;20212;-64
2022/12/27 10:21:21;;;;;;;2.80;2.33;;;7.30;99.90;;;;;;5092018;28;20188;-63
2022/12/27 10:24:11;;;;;;;5.37;2.97;;;7.20;99.90;;;;;;5094887;28;20197;-64
2022/12/27 10:26:37;;;;;;;11.87;2.93;;;7.40;99.90;;;;;;5086920;28;20208;-64
2022/12/27 10:29:16;;;;;;;4.57;2.63;;;7.30;99.90;;;;;;5094520;28;20216;-64
2022/12/27 10:31:42;;;;;;;4.37;2.70;;;7.10;99.90;;;;;;5082724;28;20181;-64
2022/12/27 10:34:12;;;;;;;7.93;3.27;;;7.00;99.90;;;;;;5094588;28;20181;-64
2022/12/27 10:36:40;;;;;;;4.57;3.13;;;7.10;99.90;;;;;;5094298;28;20185;-65
2022/12/27 10:39:17;;;;;;;3.90;2.53;;;7.40;99.90;;;;;;5090544;28;20204;-65
2022/12/27 10:41:53;;;;;;;5.33;2.60;;;7.60;99.90;;;;;;5088648;28;20185;-64
2022/12/27 10:44:21;;;;;;;6.03;3.30;;;7.60;99.90;;;;;;5085107;28;20227;-65
2022/12/27 10:46:55;;;;;;;3.43;2.30;;;7.60;99.90;;;;;;5080529;28;20205;-64
2022/12/27 10:49:27;;;;;;;7.00;2.47;;;7.70;99.90;;;;;;5092118;28;20200;-65
2022/12/27 10:52:18;;;;;;;8.40;3.50;;;7.90;99.90;;;;;;5088972;28;20656;-65
2022/12/27 10:54:51;;;;;;;7.97;2.67;;;8.00;99.90;;;;;;5073910;28;20201;-65
2022/12/27 10:57:25;;;;;;;2.27;2.07;;;8.00;99.90;;;;;;5090380;28;20173;-65
2022/12/27 11:00:13;;;;;;;3.10;2.70;;;7.90;99.90;;;;;;5095370;28;20181;-65
2022/12/27 11:02:49;;;;;;;3.10;2.90;;;8.10;99.90;;;;;;5092320;28;20539;-65
2022/12/27 11:05:20;;;;;;;7.13;3.17;;;7.90;99.90;;;;;;5093456;28;20177;-65
2022/12/27 11:07:46;;;;;;;5.27;2.53;;;7.90;99.90;;;;;;5092966;28;20180;-66
2022/12/27 11:10:24;;;;;;;7.37;3.50;;;8.00;99.90;;;;;;5092017;28;20232;-63
2022/12/27 11:13:01;;;;;;;5.63;3.70;;;8.10;99.90;;;;;;5091480;28;20224;-65
2022/12/27 11:15:30;;;;;;;5.20;2.80;;;8.50;99.90;;;;;;5106137;28;20534;-65
2022/12/27 11:17:59;;;;;;;6.67;2.90;;;8.60;99.90;;;;;;5100327;28;20177;-63
2022/12/27 11:20:41;;;;;;;6.10;2.57;;;8.80;99.90;;;;;;5092494;28;20215;-65
2022/12/27 11:23:07;;;;;;;5.30;3.33;;;9.00;99.90;;;;;;5087037;28;20697;-65
2022/12/27 11:25:33;;;;;;;2.97;2.67;;;9.10;99.90;;;;;;5092245;28;20188;-65
2022/12/27 11:28:02;;;;;;;4.43;2.63;;;9.00;99.90;;;;;;5093432;28;20188;-65
2022/12/27 11:30:40;;;;;;;7.23;2.97;;;9.00;99.90;;;;;;5091371;28;20189;-65
2022/12/27 11:33:25;;;;;;;4.43;2.53;;;8.90;99.90;;;;;;5076666;28;20205;-65
2022/12/27 11:35:53;;;;;;;4.73;3.13;;;8.90;99.90;;;;;;5090181;28;21365;-65
2022/12/27 11:38:24;;;;;;;2.47;2.03;;;9.10;99.90;;;;;;5092926;28;20184;-65
2022/12/27 11:40:59;;;;;;;4.50;2.80;;;9.00;99.90;;;;;;5091573;28;20230;-64
2022/12/27 11:43:28;;;;;;;3.57;2.90;;;9.10;99.90;;;;;;5087833;28;20169;-64
2022/12/27 11:45:56;;;;;;;6.37;2.57;;;9.00;99.90;;;;;;5080489;28;20572;-65
2022/12/27 11:48:30;;;;;;;3.63;3.10;;;9.10;99.90;;;;;;5080823;28;20189;-64
2022/12/27 11:51:14;;;;;;;5.43;2.57;;;9.10;99.90;;;;;;5091309;28;20177;-64
2022/12/27 11:54:00;;;;;;;2.77;2.50;;;9.20;99.90;;;;;;5085735;28;20177;-64
2022/12/27 11:56:34;;;;;;;6.53;3.03;;;9.20;99.90;;;;;;5090686;28;20651;-64
2022/12/27 11:59:02;;;;;;;6.07;3.67;;;9.20;99.90;;;;;;5089812;28;20574;-65
2022/12/27 12:01:43;;;;;;;6.80;3.13;;;9.30;99.90;;;;;;5090426;28;20268;-65
2022/12/27 12:04:46;;;;;;;7.27;2.67;;;9.40;99.90;;;;;;5092006;28;20188;-65
2022/12/27 12:07:38;;;;;;;5.47;3.20;;;9.40;99.90;;;;;;5076879;28;20181;-64
2022/12/27 12:10:32;;;;;;;3.60;2.60;;;9.50;99.90;;;;;;5060088;28;20586;-65
2022/12/27 12:13:10;;;;;;;3.23;2.87;;;9.50;99.90;;;;;;5078426;28;20169;-64
2022/12/27 12:15:42;;;;;;;5.87;2.50;;;9.40;99.90;;;;;;5090847;28;20222;-64
2022/12/27 12:18:35;;;;;;;3.80;2.67;;;9.50;99.90;;;;;;5092575;28;20643;-64
2022/12/27 12:21:13;;;;;;;3.43;2.20;;;9.50;99.90;;;;;;5083776;28;20242;-65
2022/12/27 12:23:45;;;;;;;3.17;2.67;;;9.60;99.90;;;;;;5092485;28;20230;-64
2022/12/27 12:26:20;;;;;;;6.70;2.97;;;9.80;99.90;;;;;;5085060;28;20173;-66
2022/12/27 12:29:27;;;;;;;3.63;2.63;;;9.60;99.90;;;;;;5092452;28;20646;-64
2022/12/27 12:32:32;;;;;;;5.77;2.77;;;9.60;99.90;;;;;;5092601;28;20184;-64
2022/12/27 12:35:39;;;;;;;5.70;3.17;;;9.50;99.90;;;;;;5074161;28;20181;-64
2022/12/27 12:38:20;;;;;;;6.37;2.53;;;9.30;99.90;;;;;;5089575;28;20722;-64
2022/12/27 12:41:01;;;;;;;3.70;2.83;;;9.30;99.90;;;;;;5092431;28;20173;-64
2022/12/27 12:43:49;;;;;;;6.47;4.43;;;9.50;99.90;;;;;;5073034;28;20193;-65
2022/12/27 12:46:23;;;;;;;8.30;3.90;;;9.50;99.90;;;;;;5070983;28;20643;-64
2022/12/27 12:49:13;;;;;;;4.80;3.03;;;9.60;99.90;;;;;;5086434;28;20239;-64
2022/12/27 12:51:47;;;;;;;6.03;3.23;;;9.50;99.90;;;;;;5084108;28;20194;-64
2022/12/27 12:54:19;;;;;;;4.77;3.10;;;9.40;99.90;;;;;;5091608;28;20215;-64
2022/12/27 12:57:02;;;;;;;5.73;3.57;;;9.20;99.90;;;;;;5091768;28;20181;-64
2022/12/27 12:59:53;;;;;;;3.00;2.40;;;9.10;99.90;;;;;;5088259;28;20208;-65
2022/12/27 13:03:23;;;;;;;3.70;2.97;;;9.20;99.90;;;;;;5088383;28;20197;-64
2022/12/27 13:06:16;;;;;;;4.73;3.20;;;9.20;99.90;;;;;;5022048;28;20218;-64
2022/12/27 13:09:13;;;;;;;3.97;2.87;;;9.20;99.90;;;;;;5075901;28;20287;-64
2022/12/27 13:12:10;;;;;;;5.80;2.97;;;9.10;99.90;;;;;;5082934;28;20189;-64
2022/12/27 13:15:05;;;;;;;6.57;3.13;;;9.10;99.90;;;;;;5076784;28;20176;-64
2022/12/27 13:17:40;;;;;;;4.70;3.07;;;9.20;99.90;;;;;;5045595;28;20189;-64
2022/12/27 13:20:23;;;;;;;3.33;2.57;;;9.20;99.90;;;;;;5090739;28;20556;-64
2022/12/27 13:22:58;;;;;;;4.17;2.87;;;9.30;99.90;;;;;;5088207;28;20234;-64
2022/12/27 13:25:26;;;;;;;10.67;3.20;;;9.40;99.90;;;;;;5082518;28;20193;-64
2022/12/27 13:28:17;;;;;;;7.53;3.20;;;9.60;99.90;;;;;;5091634;28;20656;-64
2022/12/27 13:31:01;;;;;;;6.43;2.47;;;9.60;99.90;;;;;;5090044;28;20562;-64
2022/12/27 13:33:32;;;;;;;4.20;3.73;;;9.50;99.90;;;;;;5082564;28;20172;-64
2022/12/27 13:36:10;;;;;;;7.70;2.80;;;9.50;99.90;;;;;;5095981;28;20656;-64
2022/12/27 13:39:08;;;;;;;7.63;2.63;;;9.50;99.90;;;;;;5088514;28;20184;-64
2022/12/27 13:42:13;;;;;;;4.43;2.60;;;9.50;99.90;;;;;;5067481;28;20198;-64
2022/12/27 13:45:16;;;;;;;6.97;3.00;;;9.60;99.90;;;;;;5092802;28;20234;-64
2022/12/27 13:48:16;;;;;;;6.47;2.23;;;9.50;99.90;;;;;;5093752;28;20271;-64
2022/12/27 13:51:19;;;;;;;5.97;3.93;;;9.50;99.90;;;;;;5072671;28;20196;-64
2022/12/27 13:54:07;;;;;;;4.17;2.57;;;9.50;99.90;;;;;;5090702;28;20184;-63
2022/12/27 13:56:51;;;;;;;4.67;2.80;;;9.50;99.90;;;;;;5091068;28;20634;-64
2022/12/27 13:59:46;;;;;;;4.90;2.83;;;9.50;99.90;;;;;;5093011;28;20180;-64
2022/12/27 14:02:42;;;;;;;5.10;2.90;;;9.60;99.90;;;;;;5086338;28;20196;-64
2022/12/27 14:05:40;;;;;;;7.03;2.97;;;9.70;99.90;;;;;;5090763;28;20183;-64
2022/12/27 14:08:11;;;;;;;5.60;2.60;;;9.70;99.90;;;;;;5086066;28;20185;-64
2022/12/27 14:10:48;;;;;;;5.83;3.00;;;9.60;99.90;;;;;;5091372;28;20189;-64
2022/12/27 14:13:27;;;;;;;7.43;3.10;;;9.60;99.90;;;;;;5094408;28;20195;-64
2022/12/27 14:16:04;;;;;;;4.17;3.10;;;9.60;99.90;;;;;;5088498;28;20689;-65
2022/12/27 14:19:01;;;;;;;9.30;3.30;;;9.50;99.90;;;;;;5093686;28;20195;-65
2022/12/27 14:21:52;;;;;;;6.23;4.23;;;9.40;99.90;;;;;;5074593;28;20327;-65
2022/12/27 14:24:26;;;;;;;4.17;2.67;;;9.30;99.90;;;;;;5091081;28;20201;-65
2022/12/27 14:27:13;;;;;;;7.47;2.93;;;9.20;99.90;;;;;;5093076;28;20176;-65
2022/12/27 14:30:16;;;;;;;5.27;3.03;;;9.30;99.90;;;;;;5091884;28;20246;-64
2022/12/27 14:33:03;;;;;;;7.53;3.07;;;9.30;99.90;;;;;;5092702;28;20188;-64
2022/12/27 14:35:50;;;;;;;7.67;3.03;;;9.30;99.90;;;;;;5094769;28;20263;-64
2022/12/27 14:38:48;;;;;;;3.23;2.60;;;9.20;99.90;;;;;;5090043;28;20263;-65
2022/12/27 14:41:53;;;;;;;6.67;2.93;;;9.20;99.90;;;;;;5080426;28;20185;-65
2022/12/27 14:44:50;;;;;;;6.80;3.03;;;9.30;99.90;;;;;;5091373;28;20179;-65
2022/12/27 14:47:22;;;;;;;7.17;2.77;;;9.20;99.90;;;;;;5092120;28;20180;-65
2022/12/27 14:50:06;;;;;;;3.83;2.80;;;9.20;99.90;;;;;;5092824;28;20203;-64
2022/12/27 14:52:44;;;;;;;9.13;4.67;;;9.10;99.90;;;;;;5093323;28;20280;-64
2022/12/27 14:55:19;;;;;;;10.13;2.97;;;9.00;99.90;;;;;;5088849;28;20699;-64
2022/12/27 14:57:50;;;;;;;5.50;2.97;;;9.10;99.90;;;;;;5090160;28;20188;-64
2022/12/27 15:00:21;;;;;;;3.50;3.30;;;9.20;99.90;;;;;;5092112;28;20203;-64
2022/12/27 15:02:50;;;;;;;3.53;3.23;;;9.20;99.90;;;;;;5073352;28;20682;-64
2022/12/27 15:05:27;;;;;;;7.17;3.10;;;9.20;99.90;;;;;;5087665;28;20180;-64
2022/12/27 15:08:25;;;;;;;8.07;3.90;;;9.10;99.90;;;;;;5081334;28;20173;-64